createdAt,value
2019-04-04T00:01:42.583Z,1.93
2019-04-04T00:06:28.564Z,4.43
2019-04-04T00:11:14.798Z,1.70
2019-04-04T00:16:00.674Z,2.03
2019-04-04T00:20:46.444Z,1.80
2019-04-04T00:25:32.109Z,2.80
2019-04-04T00:30:18.570Z,2.90
2019-04-04T00:35:04.328Z,2.50
2019-04-04T00:39:50.347Z,4.70
2019-04-04T00:44:36.434Z,3.40
2019-04-04T00:49:22.299Z,2.87
2019-04-04T00:54:07.968Z,3.47
2019-04-04T00:58:53.532Z,3.50
2019-04-04T01:03:39.431Z,3.40
2019-04-04T01:08:25.043Z,4.23
2019-04-04T01:13:11.455Z,3.17
2019-04-04T01:17:57.288Z,2.57
2019-04-04T01:22:42.997Z,3.13
2019-04-04T01:27:28.801Z,2.97
2019-04-04T01:32:15.142Z,3.07
2019-04-04T01:37:01.867Z,2.60
2019-04-04T01:41:47.790Z,3.23
2019-04-04T01:46:34.206Z,3.67
2019-04-04T01:51:20.942Z,3.53
2019-04-04T01:56:07.044Z,3.03
2019-04-04T02:00:53.264Z,4.40
2019-04-04T02:05:39.149Z,3.17
2019-04-04T02:10:25.324Z,2.40
2019-04-04T02:15:13.937Z,3.63
2019-04-04T02:19:58.861Z,3.63
2019-04-04T02:24:44.612Z,4.07
2019-04-04T02:29:30.405Z,4.77
2019-04-04T02:34:16.345Z,2.97
2019-04-04T02:39:08.387Z,3.80
2019-04-04T02:43:54.156Z,3.83
2019-04-04T02:48:40.010Z,4.13
2019-04-04T02:53:25.834Z,4.43
2019-04-04T02:58:15.066Z,7.83
2019-04-04T03:02:59.797Z,3.80
2019-04-04T03:07:45.497Z,4.67
2019-04-04T03:12:31.403Z,4.43
2019-04-04T03:17:17.163Z,5.00
2019-04-04T03:22:02.932Z,4.80
2019-04-04T03:26:52.161Z,4.97
2019-04-04T03:31:38.654Z,5.27
2019-04-04T03:36:24.634Z,4.43
2019-04-04T03:41:10.413Z,8.03
2019-04-04T03:46:00.145Z,5.30
2019-04-04T03:50:43.901Z,5.23
2019-04-04T03:55:29.850Z,8.17
2019-04-04T04:00:29.947Z,4.63
2019-04-04T04:05:27.526Z,9.23
2019-04-04T04:10:13.578Z,8.97
2019-04-04T04:15:00.082Z,6.57
2019-04-04T04:19:45.872Z,7.17
2019-04-04T04:24:31.760Z,6.00
2019-04-04T04:29:17.515Z,7.33
2019-04-04T04:34:04.047Z,6.07
2019-04-04T04:38:50.651Z,6.67
2019-04-04T04:43:36.649Z,5.97
2019-04-04T04:48:25.817Z,7.93
2019-04-04T04:53:10.100Z,5.97
2019-04-04T04:57:56.428Z,41.90
2019-04-04T05:02:42.706Z,6.27
2019-04-04T05:07:28.473Z,28.27
2019-04-04T05:12:14.572Z,8.33
2019-04-04T05:17:00.328Z,7.60
2019-04-04T05:21:46.182Z,6.73
2019-04-04T05:26:34.506Z,9.90
2019-04-04T05:31:21.266Z,8.70
2019-04-04T05:36:07.174Z,6.43
2019-04-04T05:40:55.025Z,10.43
2019-04-04T05:45:44.863Z,12.83
2019-04-04T05:50:29.081Z,6.27
2019-04-04T05:55:15.015Z,4.87
2019-04-04T06:00:00.747Z,10.30
2019-04-04T06:04:46.512Z,7.20
2019-04-04T06:09:32.589Z,6.00
2019-04-04T06:14:20.595Z,11.97
2019-04-04T06:19:06.127Z,10.17
2019-04-04T06:23:51.906Z,6.53
2019-04-04T06:28:37.751Z,6.80
2019-04-04T06:33:23.517Z,7.43
2019-04-04T06:38:09.348Z,8.77
2019-04-04T06:42:55.299Z,7.17
2019-04-04T06:47:40.996Z,6.07
2019-04-04T06:52:26.983Z,6.43
2019-04-04T06:57:12.654Z,8.07
2019-04-04T07:01:59.200Z,11.03
2019-04-04T07:06:45.046Z,10.93
2019-04-04T07:11:30.778Z,9.70
2019-04-04T07:16:17.444Z,10.17
2019-04-04T07:21:03.640Z,15.07
2019-04-04T07:25:49.838Z,8.77
2019-04-04T07:30:36.136Z,9.53
2019-04-04T07:35:21.832Z,9.40
2019-04-04T07:40:08.430Z,8.47
2019-04-04T07:44:54.722Z,9.67
2019-04-04T07:49:41.110Z,5.93
2019-04-04T07:54:26.759Z,6.03
2019-04-04T07:59:13.414Z,0.80
2019-04-04T08:03:59.136Z,1.57
2019-04-04T08:08:45.514Z,0.67
2019-04-04T08:13:31.205Z,0.37
2019-04-04T08:18:17.847Z,2.60
2019-04-04T08:23:03.603Z,1.87
2019-04-04T08:27:49.290Z,2.73
2019-04-04T08:32:34.980Z,0.83
2019-04-04T08:37:20.720Z,0.10
2019-04-04T08:42:06.842Z,1.53
2019-04-04T08:46:55.533Z,3.10
2019-04-04T08:51:40.214Z,0.50
2019-04-04T08:56:26.125Z,2.70
2019-04-04T09:01:11.804Z,0.67
2019-04-04T09:05:59.305Z,1.40
2019-04-04T09:10:45.025Z,1.30
2019-04-04T09:15:31.467Z,1.47
2019-04-04T09:20:18.997Z,2.00
2019-04-04T09:25:06.331Z,3.53
2019-04-04T09:29:52.091Z,3.50
2019-04-04T09:34:37.857Z,1.40
2019-04-04T09:39:23.526Z,1.00
2019-04-04T09:44:09.498Z,0.40
2019-04-04T09:48:55.204Z,0.97
2019-04-04T09:53:52.974Z,1.33
2019-04-04T09:58:29.418Z,1.80
2019-04-04T10:03:15.832Z,1.10
2019-04-04T10:08:02.255Z,1.33
2019-04-04T10:12:48.362Z,1.30
2019-04-04T10:17:34.175Z,3.47
2019-04-04T10:22:20.005Z,2.03
2019-04-04T10:27:06.006Z,0.40
2019-04-04T10:31:52.575Z,0.83
2019-04-04T10:36:38.319Z,1.33
2019-04-04T10:41:24.821Z,3.20
2019-04-04T10:46:10.630Z,3.00
2019-04-04T10:50:56.420Z,1.50
2019-04-04T10:55:42.197Z,3.73
2019-04-04T11:00:28.207Z,3.63
2019-04-04T11:05:15.116Z,1.37
2019-04-04T11:10:00.946Z,1.37
2019-04-04T11:14:46.829Z,1.20
2019-04-04T11:19:32.909Z,0.97
2019-04-04T11:24:18.773Z,1.23
2019-04-04T11:29:05.832Z,2.17
2019-04-04T11:33:52.446Z,0.97
2019-04-04T11:38:38.390Z,1.47
2019-04-04T11:43:24.762Z,4.03
2019-04-04T11:48:10.637Z,1.07
2019-04-04T11:52:56.609Z,1.20
2019-04-04T11:57:42.515Z,2.20
2019-04-04T12:02:32.559Z,0.50
2019-04-04T12:07:19.905Z,0.73
2019-04-04T12:12:05.781Z,1.27
2019-04-04T12:16:51.697Z,1.23
2019-04-04T12:21:38.079Z,0.67
2019-04-04T12:26:24.185Z,1.00
2019-04-04T12:31:10.067Z,0.97
2019-04-04T12:35:56.585Z,0.97
2019-04-04T12:40:42.324Z,0.20
2019-04-04T12:45:28.357Z,1.20
2019-04-04T12:50:14.588Z,0.47
2019-04-04T12:55:01.029Z,1.30
2019-04-04T12:59:46.777Z,0.30
2019-04-04T13:04:32.927Z,0.77
2019-04-04T13:09:18.720Z,0.47
2019-04-04T13:14:05.184Z,0.30
2019-04-04T13:18:51.223Z,0.77
2019-04-04T13:23:37.055Z,1.23
2019-04-04T13:28:23.360Z,1.47
2019-04-04T13:33:09.384Z,0.63
2019-04-04T13:37:55.852Z,0.33
2019-04-04T13:42:41.685Z,0.93
2019-04-04T13:47:27.688Z,1.93
2019-04-04T13:52:13.933Z,2.00
2019-04-04T13:56:59.789Z,0.97
2019-04-04T14:01:45.621Z,1.33
2019-04-04T14:06:32.387Z,2.43
2019-04-04T14:11:18.392Z,3.87
2019-04-04T14:16:05.132Z,0.73
2019-04-04T14:21:02.947Z,1.80
2019-04-04T14:25:40.187Z,2.10
2019-04-04T14:30:26.405Z,1.73
2019-04-04T14:35:12.421Z,8.80
2019-04-04T14:39:58.184Z,3.00
2019-04-04T14:44:44.476Z,3.77
2019-04-04T14:49:30.446Z,4.97
2019-04-04T14:54:17.488Z,8.13
2019-04-04T14:59:03.278Z,5.73
2019-04-04T15:03:49.125Z,6.60
2019-04-04T15:08:35.051Z,6.00
2019-04-04T15:13:21.194Z,5.10
2019-04-04T15:18:07.181Z,7.77
2019-04-04T15:22:53.118Z,5.00
2019-04-04T15:27:39.310Z,5.40
2019-04-04T15:32:25.771Z,3.50
2019-04-04T15:37:11.651Z,5.77
2019-04-04T15:41:57.925Z,7.10
2019-04-04T15:46:44.087Z,5.03
2019-04-04T15:51:30.863Z,5.73
2019-04-04T15:56:16.720Z,1.13
2019-04-04T16:01:02.890Z,0.80
2019-04-04T16:05:48.917Z,5.33
2019-04-04T16:10:35.448Z,7.37
2019-04-04T16:15:21.451Z,4.77
2019-04-04T16:20:08.359Z,5.07
2019-04-04T16:24:54.382Z,6.53
2019-04-04T16:29:44.129Z,8.63
2019-04-04T16:34:29.930Z,4.80
2019-04-04T16:39:15.911Z,1.47
2019-04-04T16:44:01.678Z,2.93
2019-04-04T16:48:47.879Z,1.67
2019-04-04T16:53:33.790Z,1.33
2019-04-04T16:58:20.504Z,0.30
2019-04-04T17:03:06.877Z,0.40
2019-04-04T17:07:53.259Z,0.43
2019-04-04T17:12:39.398Z,0.70
2019-04-04T17:17:26.291Z,0.37
2019-04-04T17:22:12.633Z,4.07
2019-04-04T17:26:58.908Z,0.33
2019-04-04T17:31:45.565Z,1.73
2019-04-04T17:36:32.873Z,0.63
2019-04-04T17:41:18.944Z,1.70
2019-04-04T17:46:05.492Z,0.60
2019-04-04T17:50:51.639Z,1.70
2019-04-04T17:55:37.927Z,0.57
2019-04-04T18:00:27.058Z,1.73
2019-04-04T18:05:13.252Z,13.80
2019-04-04T18:09:59.534Z,16.83
2019-04-04T18:14:46.362Z,17.80
2019-04-04T18:19:32.336Z,17.97
2019-04-04T18:24:18.576Z,19.10
2019-04-04T18:29:04.979Z,22.47
2019-04-04T18:33:51.067Z,18.47
2019-04-04T18:38:36.928Z,21.43
2019-04-04T18:43:23.340Z,22.83
2019-04-04T18:48:09.801Z,26.33
2019-04-04T18:52:56.725Z,20.77
2019-04-04T18:57:42.791Z,21.77
2019-04-04T19:02:30.022Z,21.60
2019-04-04T19:07:16.622Z,21.33
2019-04-04T19:12:02.483Z,22.13
2019-04-04T19:16:48.472Z,24.57
2019-04-04T19:21:34.390Z,27.07
2019-04-04T19:26:20.532Z,27.90
2019-04-04T19:31:07.627Z,24.00
2019-04-04T19:35:53.941Z,26.40
2019-04-04T19:40:40.636Z,28.47
2019-04-04T19:45:27.847Z,27.80
2019-04-04T19:50:14.955Z,30.93
2019-04-04T19:55:01.110Z,32.10
2019-04-04T19:59:47.235Z,33.90
2019-04-04T20:04:33.687Z,29.90
2019-04-04T20:09:19.975Z,27.90
2019-04-04T20:14:07.932Z,26.47
2019-04-04T20:18:55.088Z,24.63
2019-04-04T20:23:41.132Z,23.10
2019-04-04T20:28:27.801Z,23.70
2019-04-04T20:33:14.259Z,28.40
2019-04-04T20:38:00.479Z,23.13
2019-04-04T20:42:47.202Z,26.53
2019-04-04T20:47:33.895Z,26.27
2019-04-04T20:52:20.073Z,25.27
2019-04-04T20:57:06.639Z,31.30
2019-04-04T21:01:52.707Z,29.13
2019-04-04T21:06:39.685Z,27.13
2019-04-04T21:11:25.472Z,26.40
2019-04-04T21:16:11.628Z,33.30
2019-04-04T21:20:57.713Z,36.07
2019-04-04T21:25:43.935Z,33.37
2019-04-04T21:30:30.283Z,45.17
2019-04-04T21:35:17.046Z,33.53
2019-04-04T21:40:02.936Z,30.13
2019-04-04T21:44:48.799Z,24.17
2019-04-04T21:49:34.541Z,28.47
2019-04-04T21:54:20.350Z,27.03
2019-04-04T21:59:06.185Z,30.10
2019-04-04T22:03:52.099Z,34.93
2019-04-04T22:08:39.076Z,33.40
2019-04-04T22:13:25.343Z,38.30
2019-04-04T22:18:11.320Z,30.47
2019-04-04T22:22:57.172Z,30.80
2019-04-04T22:27:42.968Z,28.50
2019-04-04T22:32:28.800Z,32.80
2019-04-04T22:37:14.809Z,31.80
2019-04-04T22:42:01.569Z,31.40
2019-04-04T22:46:47.459Z,31.67
2019-04-04T22:51:33.184Z,31.60
2019-04-04T22:56:18.891Z,30.17
2019-04-04T23:01:04.768Z,32.43
2019-04-04T23:05:51.500Z,33.97
2019-04-04T23:10:38.003Z,38.60
2019-04-04T23:15:23.886Z,44.83
2019-04-04T23:20:10.847Z,42.47
2019-04-04T23:24:56.698Z,41.47
2019-04-04T23:29:42.759Z,37.27
2019-04-04T23:34:29.330Z,41.63
2019-04-04T23:39:15.061Z,40.57
2019-04-04T23:44:00.839Z,37.10
2019-04-04T23:48:46.568Z,37.67
2019-04-04T23:53:33.661Z,39.33
2019-04-04T23:58:19.421Z,38.00
